^^
Station Historical Data
Daily Summary for January 5, 2017 Units:  English    Metric   Both
« Previous Day
Next Day »
Daily Weekly Monthly Yearly Custom
  High: Low: Average:
Temperature: 31.6 °F 24.1 °F 27.9 °F
Dew Point: 16.1 °F 9.6 °F 12.2 °F
Humidity: 59% 45% 51%
Wind Speed: 10.0mph 0.0mph 2.7mph
Wind Gust: 21.0mph - -
Wind- - SW
Pressure: 30.01 in 29.73 in -
Precipitation: 0.00 in    
Historical Graphs
 
 
Tabular Data for January 5, 2017
Time Temperature Dew Point Pressure Wind Wind Speed Wind Gust Humidity Rainfall Rate (Hourly) Conditions
00:00 31.6 °F 14.6 °F 29.73 in SW 6.0 mph 15.0 mph 49% 0.00 in RA
00:10 31.4 °F 13.9 °F 29.74 in WSW 5.0 mph 13.0 mph 48% 0.00 in CLR
00:20 31.2 °F 14.2 °F 29.74 in WSW 5.0 mph 14.0 mph 49% 0.00 in CLR
00:30 30.9 °F 14.5 °F 29.74 in WSW 5.0 mph 12.0 mph 50% 0.00 in CLR
00:40 30.8 °F 13.9 °F 29.74 in SW 3.0 mph 14.0 mph 49% 0.00 in CLR
00:50 30.7 °F 13.8 °F 29.75 in WSW 3.0 mph 12.0 mph 49% 0.00 in CLR
01:00 30.5 °F 13.6 °F 29.75 in WSW 2.0 mph 17.0 mph 49% 0.00 in CLR
01:10 30.4 °F 13.0 °F 29.76 in WSW 10.0 mph 19.0 mph 48% 0.00 in CLR
01:20 30.4 °F 13.5 °F 29.76 in WSW 6.0 mph 16.0 mph 49% 0.00 in CLR
01:30 30.2 °F 13.8 °F 29.77 in SW 3.0 mph 14.0 mph 50% 0.00 in CLR
01:40 30.1 °F 13.7 °F 29.77 in WSW 8.0 mph 15.0 mph 50% 0.00 in CLR
01:50 29.8 °F 13.4 °F 29.78 in SW 3.0 mph 17.0 mph 50% 0.00 in CLR
02:00 29.7 °F 13.3 °F 29.78 in WSW 5.0 mph 17.0 mph 50% 0.00 in CLR
02:10 29.5 °F 13.5 °F 29.78 in WSW 5.0 mph 20.0 mph 51% 0.00 in CLR
02:20 29.3 °F 13.8 °F 29.79 in WSW 5.0 mph 13.0 mph 52% 0.00 in CLR
02:30 29.2 °F 14.2 °F 29.79 in SW 3.0 mph 16.0 mph 53% 0.00 in CLR
02:40 29.0 °F 14.4 °F 29.78 in SW 6.0 mph 10.0 mph 54% 0.00 in CLR
02:50 28.9 °F 14.3 °F 29.78 in West 3.0 mph 12.0 mph 54% 0.00 in CLR
03:00 28.6 °F 14.1 °F 29.80 in SW 2.0 mph 14.0 mph 54% 0.00 in CLR
03:10 28.6 °F 14.5 °F 29.81 in SW 2.0 mph 9.0 mph 55% 0.00 in SCT
03:20 28.5 °F 14.3 °F 29.82 in SW 5.0 mph 12.0 mph 55% 0.00 in SCT
03:30 28.5 °F 14.4 °F 29.82 in SW 2.0 mph 14.0 mph 55% 0.00 in SCT
03:40 28.4 °F 13.4 °F 29.83 in SW 2.0 mph 15.0 mph 53% 0.00 in SCT
03:50 28.1 °F 12.7 °F 29.83 in West 7.0 mph 10.0 mph 52% 0.00 in SCT
04:00 27.7 °F 11.9 °F 29.84 in WSW 3.0 mph 12.0 mph 51% 0.00 in SCT
04:10 27.4 °F 11.6 °F 29.84 in WSW 5.0 mph 12.0 mph 51% 0.00 in SCT
04:20 27.1 °F 11.3 °F 29.85 in SW 2.0 mph 12.0 mph 51% 0.00 in SCT
04:30 26.9 °F 11.2 °F 29.85 in SW 6.0 mph 10.0 mph 51% 0.00 in SCT
04:40 26.7 °F 9.6 °F 29.85 in WSW 6.0 mph 15.0 mph 48% 0.00 in SCT
04:50 26.5 °F 9.9 °F 29.86 in SW 3.0 mph 16.0 mph 49% 0.00 in SCT
05:00 26.3 °F 9.7 °F 29.86 in SW 6.0 mph 12.0 mph 49% 0.00 in SCT
05:10 26.3 °F 10.2 °F 29.88 in WSW 5.0 mph 14.0 mph 50% 0.00 in FEW
05:20 26.1 °F 10.4 °F 29.88 in SW 3.0 mph 9.0 mph 51% 0.00 in FEW
05:30 25.9 °F 11.5 °F 29.89 in WSW 2.0 mph 17.0 mph 54% 0.00 in FEW
05:40 25.7 °F 11.3 °F 29.89 in SSW 3.0 mph 13.0 mph 54% 0.00 in FEW
05:50 25.5 °F 10.7 °F 29.89 in WSW 1.0 mph 12.0 mph 53% 0.00 in FEW
06:00 25.3 °F 11.4 °F 29.90 in WSW 3.0 mph 8.0 mph 55% 0.00 in FEW
06:10 25.2 °F 10.9 °F 29.90 in WSW 2.0 mph 12.0 mph 54% 0.00 in CLR
06:20 25.1 °F 10.8 °F 29.91 in SW 3.0 mph 12.0 mph 54% 0.00 in CLR
06:30 25.0 °F 11.1 °F 29.92 in SW 1.0 mph 10.0 mph 55% 0.00 in CLR
06:40 24.9 °F 11.0 °F 29.92 in WSW 3.0 mph 12.0 mph 55% 0.00 in CLR
06:50 24.8 °F 10.4 °F 29.92 in SW 6.0 mph 15.0 mph 54% 0.00 in CLR
07:00 24.6 °F 11.1 °F 29.93 in SSW 1.0 mph 7.0 mph 56% 0.00 in CLR
07:10 24.5 °F 10.6 °F 29.94 in SW 3.0 mph 10.0 mph 55% 0.00 in CLR
07:20 24.4 °F 10.9 °F 29.95 in SW 2.0 mph 15.0 mph 56% 0.00 in CLR
07:30 24.4 °F 10.9 °F 29.96 in SSW 8.0 mph 15.0 mph 56% 0.00 in CLR
07:40 24.3 °F 10.8 °F 29.96 in SW 2.0 mph 21.0 mph 56% 0.00 in CLR
07:50 24.2 °F 10.7 °F 29.96 in SW 3.0 mph 13.0 mph 56% 0.00 in CLR
08:00 24.2 °F 10.3 °F 29.96 in West 5.0 mph 10.0 mph 55% 0.00 in CLR
08:10 24.1 °F 10.6 °F 29.95 in SW 1.0 mph 10.0 mph 56% 0.00 in FEW
08:20 24.2 °F 10.3 °F 29.95 in SW 5.0 mph 14.0 mph 55% 0.00 in FEW
08:30 24.3 °F 10.0 °F 29.95 in SW 2.0 mph 13.0 mph 54% 0.00 in FEW
08:40 24.3 °F 10.0 °F 29.95 in WSW 5.0 mph 9.0 mph 54% 0.00 in FEW
08:50 24.6 °F 10.3 °F 29.95 in WSW 3.0 mph 10.0 mph 54% 0.00 in FEW
09:00 24.8 °F 10.5 °F 29.96 in South 2.0 mph 8.0 mph 54% 0.00 in FEW
09:10 25.1 °F 10.3 °F 29.96 in WSW 2.0 mph 12.0 mph 53% 0.00 in FEW
09:20 25.3 °F 10.5 °F 29.98 in Calm   10.0 mph 53% 0.00 in FEW
09:30 25.5 °F 10.3 °F 29.99 in WSW 6.0 mph 10.0 mph 52% 0.00 in FEW
09:40 25.7 °F 11.0 °F 30.00 in SW 2.0 mph 12.0 mph 53% 0.00 in FEW
09:50 26.3 °F 11.0 °F 30.00 in WSW 3.0 mph 12.0 mph 52% 0.00 in FEW
10:00 26.4 °F 10.3 °F 30.01 in WSW 6.0 mph 12.0 mph 50% 0.00 in FEW
10:10 26.5 °F 10.3 °F 30.01 in SW 5.0 mph 12.0 mph 50% 0.00 in CLR
10:20 26.6 °F 10.4 °F 30.01 in WSW 7.0 mph 13.0 mph 50% 0.00 in CLR
10:30 26.7 °F 10.5 °F 30.01 in SW 5.0 mph 12.0 mph 50% 0.00 in CLR
10:40 26.7 °F 10.1 °F 30.00 in SW 3.0 mph 12.0 mph 49% 0.00 in CLR
10:50 26.9 °F 10.3 °F 29.99 in SW 3.0 mph 10.0 mph 49% 0.00 in CLR
11:00 26.8 °F 10.6 °F 29.98 in SW 1.0 mph 10.0 mph 50% 0.00 in CLR
11:10 26.9 °F 10.3 °F 29.97 in WSW 2.0 mph 9.0 mph 49% 0.00 in CLR
11:20 27.1 °F 10.9 °F 29.97 in SSW 5.0 mph 9.0 mph 50% 0.00 in CLR
11:30 27.0 °F 10.8 °F 29.96 in SW 1.0 mph 9.0 mph 50% 0.00 in CLR
11:40 27.2 °F 10.5 °F 29.96 in WSW 2.0 mph 9.0 mph 49% 0.00 in CLR
11:50 27.5 °F 10.8 °F 29.96 in Calm   12.0 mph 49% 0.00 in CLR
12:00 27.4 °F 10.3 °F 29.96 in NW 2.0 mph 9.0 mph 48% 0.00 in CLR
12:10 27.7 °F 11.0 °F 29.97 in WSW 5.0 mph 10.0 mph 49% 0.00 in CLR
12:20 27.8 °F 10.6 °F 29.96 in SW 1.0 mph 12.0 mph 48% 0.00 in CLR
12:30 28.0 °F 11.3 °F 29.95 in WSW 1.0 mph 9.0 mph 49% 0.00 in CLR
12:40 28.7 °F 11.0 °F 29.94 in SW 5.0 mph 10.0 mph 47% 0.00 in CLR
12:50 28.6 °F 10.9 °F 29.94 in SSW 2.0 mph 10.0 mph 47% 0.00 in CLR
13:00 28.6 °F 10.9 °F 29.94 in WSW 3.0 mph 8.0 mph 47% 0.00 in CLR
13:10 29.1 °F 11.4 °F 29.94 in WSW 2.0 mph 10.0 mph 47% 0.00 in CLR
13:20 29.6 °F 11.3 °F 29.94 in SW 5.0 mph 9.0 mph 46% 0.00 in CLR
13:30 29.3 °F 11.1 °F 29.94 in SSW 3.0 mph 14.0 mph 46% 0.00 in CLR
13:40 29.8 °F 11.5 °F 29.94 in WSW 2.0 mph 12.0 mph 46% 0.00 in CLR
13:50 30.3 °F 12.0 °F 29.94 in WNW 1.0 mph 8.0 mph 46% 0.00 in CLR
14:00 29.8 °F 11.5 °F 29.93 in SW 1.0 mph 9.0 mph 46% 0.00 in CLR
14:10 29.6 °F 11.3 °F 29.94 in WSW 3.0 mph 8.0 mph 46% 0.00 in CLR
14:20 29.6 °F 11.3 °F 29.94 in SW 2.0 mph 9.0 mph 46% 0.00 in CLR
14:30 29.4 °F 10.6 °F 29.94 in West 1.0 mph 7.0 mph 45% 0.00 in CLR
14:40 29.4 °F 11.1 °F 29.94 in SW 2.0 mph 6.0 mph 46% 0.00 in CLR
14:50 29.4 °F 10.6 °F 29.94 in WSW 2.0 mph 8.0 mph 45% 0.00 in CLR
15:00 29.5 °F 10.7 °F 29.94 in SW 2.0 mph 7.0 mph 45% 0.00 in CLR
15:10 29.6 °F 10.8 °F 29.94 in SW 1.0 mph 7.0 mph 45% 0.00 in CLR
15:20 29.6 °F 10.9 °F 29.94 in SW 2.0 mph 8.0 mph 45% 0.00 in CLR
15:30 29.6 °F 10.9 °F 29.93 in Calm   6.0 mph 45% 0.00 in CLR
15:40 29.7 °F 11.9 °F 29.94 in SW 1.0 mph 6.0 mph 47% 0.00 in CLR
15:50 29.6 °F 11.3 °F 29.94 in SW 1.0 mph 6.0 mph 46% 0.00 in CLR
16:00 29.3 °F 11.1 °F 29.94 in SW 1.0 mph 8.0 mph 46% 0.00 in CLR
16:10 29.1 °F 11.4 °F 29.94 in SSW 1.0 mph 6.0 mph 47% 0.00 in CLR
16:20 29.0 °F 11.3 °F 29.93 in South 3.0 mph 6.0 mph 47% 0.00 in CLR
16:30 28.9 °F 11.2 °F 29.93 in Calm   6.0 mph 47% 0.00 in CLR
16:40 28.7 °F 11.0 °F 29.93 in SW 1.0 mph 4.0 mph 47% 0.00 in CLR
16:50 28.6 °F 11.4 °F 29.94 in SW 1.0 mph 6.0 mph 48% 0.00 in CLR
17:00 28.6 °F 10.9 °F 29.94 in WSW 3.0 mph 6.0 mph 47% 0.00 in CLR
17:10 28.5 °F 11.3 °F 29.94 in WSW 1.0 mph 4.0 mph 48% 0.00 in CLR
17:20 28.4 °F 11.2 °F 29.94 in SW 1.0 mph 4.0 mph 48% 0.00 in CLR
17:30 28.3 °F 11.1 °F 29.95 in WSW 1.0 mph 3.0 mph 48% 0.00 in CLR
17:40 28.2 °F 11.5 °F 29.95 in SW 1.0 mph 3.0 mph 49% 0.00 in CLR
17:50 28.2 °F 11.9 °F 29.96 in SW 1.0 mph 4.0 mph 50% 0.00 in CLR
18:00 28.3 °F 12.0 °F 29.96 in SW 1.0 mph 5.0 mph 50% 0.00 in CLR
18:10 28.2 °F 12.4 °F 29.96 in Calm   6.0 mph 51% 0.00 in SCT
18:20 28.2 °F 12.4 °F 29.96 in SW 2.0 mph 7.0 mph 51% 0.00 in SCT
18:30 28.3 °F 12.5 °F 29.96 in SSW 2.0 mph 4.0 mph 51% 0.00 in SCT
18:40 28.5 °F 12.6 °F 29.96 in SSW 1.0 mph 7.0 mph 51% 0.00 in SCT
18:50 28.6 °F 12.7 °F 29.97 in SW 3.0 mph 7.0 mph 51% 0.00 in SCT
19:00 28.5 °F 12.6 °F 29.97 in South 1.0 mph 6.0 mph 51% 0.00 in SCT
19:10 28.4 °F 13.0 °F 29.96 in Calm   4.0 mph 52% 0.00 in BKN
19:20 28.3 °F 12.9 °F 29.96 in SW 1.0 mph 5.0 mph 52% 0.00 in BKN
19:30 28.4 °F 13.4 °F 29.97 in SSW 1.0 mph 7.0 mph 53% 0.00 in BKN
19:40 28.6 °F 14.0 °F 29.98 in SW 1.0 mph 6.0 mph 54% 0.00 in BKN
19:50 28.7 °F 14.6 °F 29.99 in SW 1.0 mph 7.0 mph 55% 0.00 in BKN
20:00 28.8 °F 14.2 °F 29.98 in SW 2.0 mph 5.0 mph 54% 0.00 in BKN
20:10 28.8 °F 14.2 °F 29.96 in SSW 2.0 mph 10.0 mph 54% 0.00 in BKN
20:20 28.8 °F 14.6 °F 29.97 in Calm   9.0 mph 55% 0.00 in BKN
20:30 28.9 °F 14.3 °F 29.98 in SW 5.0 mph 10.0 mph 54% 0.00 in BKN
20:40 29.0 °F 14.8 °F 29.98 in SW 1.0 mph 10.0 mph 55% 0.00 in BKN
20:50 29.0 °F 14.8 °F 29.99 in SW 2.0 mph 6.0 mph 55% 0.00 in BKN
21:00 29.0 °F 14.8 °F 29.99 in SW 5.0 mph 12.0 mph 55% 0.00 in BKN
21:10 29.0 °F 14.8 °F 29.99 in SW 5.0 mph 8.0 mph 55% 0.00 in BKN
21:20 28.9 °F 14.8 °F 29.99 in SSW 5.0 mph 13.0 mph 55% 0.00 in BKN
21:30 28.9 °F 15.2 °F 29.98 in SW 1.0 mph 7.0 mph 56% 0.00 in BKN
21:40 28.9 °F 15.2 °F 29.98 in SW 2.0 mph 8.0 mph 56% 0.00 in BKN
21:50 28.8 °F 15.1 °F 29.98 in SSW 1.0 mph 12.0 mph 56% 0.00 in BKN
22:00 28.7 °F 15.0 °F 29.98 in South 1.0 mph 11.0 mph 56% 0.00 in BKN
22:10 28.5 °F 15.2 °F 29.97 in SW 1.0 mph 9.0 mph 57% 0.00 in BKN
22:20 28.4 °F 15.1 °F 29.97 in SW 2.0 mph 7.0 mph 57% 0.00 in BKN
22:30 28.4 °F 15.1 °F 29.97 in SW 2.0 mph 9.0 mph 57% 0.00 in BKN
22:40 28.5 °F 15.2 °F 29.97 in SW 1.0 mph 6.0 mph 57% 0.00 in BKN
22:50 28.5 °F 15.2 °F 29.97 in SW 2.0 mph 8.0 mph 57% 0.00 in BKN
23:00 28.5 °F 15.1 °F 29.96 in South 2.0 mph 7.0 mph 57% 0.00 in BKN
23:10 28.4 °F 15.5 °F 29.96 in SW 2.0 mph 4.0 mph 58% 0.00 in SCT
23:20 28.5 °F 15.6 °F 29.97 in SW 2.0 mph 8.0 mph 58% 0.00 in SCT
23:30 28.6 °F 15.7 °F 29.97 in WSW 1.0 mph 7.0 mph 58% 0.00 in SCT
23:40 28.6 °F 16.1 °F 29.97 in SSW 1.0 mph 7.0 mph 59% 0.00 in SCT
23:50 28.6 °F 16.1 °F 29.98 in SW 1.0 mph 8.0 mph 59% 0.00 in SCT
TarryTown NY Weather
Compliments of Weather Underground - 1.75 mb